sensor_id;sensor_type;location;lat;lon;timestamp;pressure;altitude;pressure_sealevel;temperature;humidity
77112;BME280;66064;50.226;14.344;2023-04-03T00:01:25;100315.03;;;3.69;73.47
77112;BME280;66064;50.226;14.344;2023-04-03T00:03:51;100316.69;;;3.67;72.84
77112;BME280;66064;50.226;14.344;2023-04-03T00:06:20;100310.75;;;3.71;73.26
77112;BME280;66064;50.226;14.344;2023-04-03T00:08:46;100306.41;;;3.72;72.82
77112;BME280;66064;50.226;14.344;2023-04-03T00:11:12;100318.41;;;3.67;72.71
77112;BME280;66064;50.226;14.344;2023-04-03T00:13:39;100307.06;;;3.68;71.67
77112;BME280;66064;50.226;14.344;2023-04-03T00:16:11;100314.72;;;3.63;71.55
77112;BME280;66064;50.226;14.344;2023-04-03T00:18:38;100319.16;;;3.64;71.28
77112;BME280;66064;50.226;14.344;2023-04-03T00:21:06;100320.88;;;3.64;72.41
77112;BME280;66064;50.226;14.344;2023-04-03T00:23:33;100320.13;;;3.66;70.58
77112;BME280;66064;50.226;14.344;2023-04-03T00:26:00;100329.31;;;3.57;71.11
77112;BME280;66064;50.226;14.344;2023-04-03T00:28:27;100326.53;;;3.54;70.65
77112;BME280;66064;50.226;14.344;2023-04-03T00:30:56;100317.50;;;3.48;69.68
77112;BME280;66064;50.226;14.344;2023-04-03T00:33:22;100333.34;;;3.50;69.99
77112;BME280;66064;50.226;14.344;2023-04-03T00:35:52;100332.28;;;3.46;69.27
77112;BME280;66064;50.226;14.344;2023-04-03T00:38:18;100340.03;;;3.43;67.80
77112;BME280;66064;50.226;14.344;2023-04-03T00:40:47;100341.38;;;3.35;67.35
77112;BME280;66064;50.226;14.344;2023-04-03T00:43:22;100342.13;;;3.33;67.26
77112;BME280;66064;50.226;14.344;2023-04-03T00:45:51;100340.06;;;3.27;66.82
77112;BME280;66064;50.226;14.344;2023-04-03T00:48:42;100348.25;;;3.15;67.41
77112;BME280;66064;50.226;14.344;2023-04-03T00:51:23;100349.41;;;3.04;67.04
77112;BME280;66064;50.226;14.344;2023-04-03T00:53:56;100346.88;;;2.90;67.42
77112;BME280;66064;50.226;14.344;2023-04-03T00:56:27;100347.38;;;2.83;66.50
77112;BME280;66064;50.226;14.344;2023-04-03T00:58:59;100354.53;;;2.69;64.13
77112;BME280;66064;50.226;14.344;2023-04-03T01:01:28;100344.34;;;2.59;63.08
77112;BME280;66064;50.226;14.344;2023-04-03T01:03:59;100354.44;;;2.51;63.52
77112;BME280;66064;50.226;14.344;2023-04-03T01:06:29;100349.59;;;2.42;65.01
77112;BME280;66064;50.226;14.344;2023-04-03T01:08:59;100353.22;;;2.30;65.99
77112;BME280;66064;50.226;14.344;2023-04-03T01:11:26;100356.00;;;2.17;67.33
77112;BME280;66064;50.226;14.344;2023-04-03T01:13:52;100359.25;;;2.13;69.15
77112;BME280;66064;50.226;14.344;2023-04-03T01:16:19;100358.66;;;2.02;68.95
77112;BME280;66064;50.226;14.344;2023-04-03T01:18:45;100359.41;;;1.99;68.85
77112;BME280;66064;50.226;14.344;2023-04-03T01:24:33;100381.34;;;1.85;69.33
77112;BME280;66064;50.226;14.344;2023-04-03T01:27:00;100379.19;;;1.78;68.98
77112;BME280;66064;50.226;14.344;2023-04-03T01:29:28;100379.00;;;1.75;68.54
77112;BME280;66064;50.226;14.344;2023-04-03T01:31:59;100387.41;;;1.69;68.30
77112;BME280;66064;50.226;14.344;2023-04-03T01:34:29;100383.59;;;1.64;67.49
77112;BME280;66064;50.226;14.344;2023-04-03T01:36:56;100387.78;;;1.61;67.62
77112;BME280;66064;50.226;14.344;2023-04-03T01:39:22;100391.75;;;1.54;67.90
77112;BME280;66064;50.226;14.344;2023-04-03T01:41:49;100396.63;;;1.48;67.79
77112;BME280;66064;50.226;14.344;2023-04-03T01:44:16;100388.34;;;1.40;67.12
77112;BME280;66064;50.226;14.344;2023-04-03T01:46:43;100398.81;;;1.26;68.09
77112;BME280;66064;50.226;14.344;2023-04-03T01:49:09;100395.63;;;1.17;67.67
77112;BME280;66064;50.226;14.344;2023-04-03T01:51:35;100401.84;;;1.04;68.44
77112;BME280;66064;50.226;14.344;2023-04-03T01:54:01;100408.50;;;0.99;68.60
77112;BME280;66064;50.226;14.344;2023-04-03T01:56:28;100420.81;;;1.00;66.88
77112;BME280;66064;50.226;14.344;2023-04-03T01:58:54;100416.00;;;0.93;67.27
77112;BME280;66064;50.226;14.344;2023-04-03T02:01:20;100416.81;;;0.92;66.26
77112;BME280;66064;50.226;14.344;2023-04-03T02:03:47;100414.28;;;0.93;66.97
77112;BME280;66064;50.226;14.344;2023-04-03T02:06:13;100415.41;;;0.84;66.29
77112;BME280;66064;50.226;14.344;2023-04-03T02:08:39;100425.25;;;0.73;66.23
77112;BME280;66064;50.226;14.344;2023-04-03T02:11:06;100422.13;;;0.65;67.69
77112;BME280;66064;50.226;14.344;2023-04-03T02:13:32;100420.97;;;0.60;67.66
77112;BME280;66064;50.226;14.344;2023-04-03T02:15:58;100426.41;;;0.50;67.61
77112;BME280;66064;50.226;14.344;2023-04-03T02:18:24;100424.81;;;0.39;67.61
77112;BME280;66064;50.226;14.344;2023-04-03T02:20:51;100430.69;;;0.22;68.29
77112;BME280;66064;50.226;14.344;2023-04-03T02:23:17;100432.50;;;0.10;69.07
77112;BME280;66064;50.226;14.344;2023-04-03T02:25:43;100442.34;;;0.00;69.61
77112;BME280;66064;50.226;14.344;2023-04-03T02:28:09;100440.97;;;-0.08;69.46
77112;BME280;66064;50.226;14.344;2023-04-03T02:30:35;100434.81;;;-0.21;70.40
77112;BME280;66064;50.226;14.344;2023-04-03T02:33:01;100437.53;;;-0.33;71.88
77112;BME280;66064;50.226;14.344;2023-04-03T02:35:28;100436.78;;;-0.44;71.96
77112;BME280;66064;50.226;14.344;2023-04-03T02:38:02;100437.59;;;-0.45;72.74
77112;BME280;66064;50.226;14.344;2023-04-03T02:40:28;100450.75;;;-0.56;72.68
77112;BME280;66064;50.226;14.344;2023-04-03T02:42:55;100456.69;;;-0.59;72.04
77112;BME280;66064;50.226;14.344;2023-04-03T02:45:21;100447.72;;;-0.62;72.69
77112;BME280;66064;50.226;14.344;2023-04-03T02:47:47;100451.13;;;-0.63;73.33
77112;BME280;66064;50.226;14.344;2023-04-03T02:50:14;100449.72;;;-0.72;73.63
77112;BME280;66064;50.226;14.344;2023-04-03T02:52:40;100456.97;;;-0.67;73.53
77112;BME280;66064;50.226;14.344;2023-04-03T02:55:08;100459.38;;;-0.71;73.65
77112;BME280;66064;50.226;14.344;2023-04-03T02:57:38;100454.03;;;-0.72;73.28
77112;BME280;66064;50.226;14.344;2023-04-03T03:00:05;100456.31;;;-0.77;73.46
77112;BME280;66064;50.226;14.344;2023-04-03T03:02:32;100459.03;;;-0.75;74.24
77112;BME280;66064;50.226;14.344;2023-04-03T03:04:58;100451.38;;;-0.85;73.66
77112;BME280;66064;50.226;14.344;2023-04-03T03:07:24;100461.31;;;-0.80;73.61
77112;BME280;66064;50.226;14.344;2023-04-03T03:09:52;100466.56;;;-0.80;74.12
77112;BME280;66064;50.226;14.344;2023-04-03T03:12:18;100480.13;;;-0.85;73.40
77112;BME280;66064;50.226;14.344;2023-04-03T03:14:48;100476.03;;;-0.82;73.83
77112;BME280;66064;50.226;14.344;2023-04-03T03:17:14;100482.53;;;-0.88;74.05
77112;BME280;66064;50.226;14.344;2023-04-03T03:19:41;100482.75;;;-0.97;74.01
77112;BME280;66064;50.226;14.344;2023-04-03T03:22:07;100478.16;;;-1.01;74.13
77112;BME280;66064;50.226;14.344;2023-04-03T03:24:33;100475.53;;;-1.01;74.51
77112;BME280;66064;50.226;14.344;2023-04-03T03:26:59;100475.88;;;-1.08;74.99
77112;BME280;66064;50.226;14.344;2023-04-03T03:29:25;100474.66;;;-1.13;74.84
77112;BME280;66064;50.226;14.344;2023-04-03T03:31:51;100486.59;;;-1.17;74.95
77112;BME280;66064;50.226;14.344;2023-04-03T03:34:20;100487.75;;;-1.25;74.60
77112;BME280;66064;50.226;14.344;2023-04-03T03:36:46;100484.91;;;-1.28;75.19
77112;BME280;66064;50.226;14.344;2023-04-03T03:39:12;100476.28;;;-1.27;75.08
77112;BME280;66064;50.226;14.344;2023-04-03T03:41:38;100500.28;;;-1.32;75.07
77112;BME280;66064;50.226;14.344;2023-04-03T03:44:04;100499.66;;;-1.28;74.91
77112;BME280;66064;50.226;14.344;2023-04-03T03:46:30;100495.84;;;-1.33;75.49
77112;BME280;66064;50.226;14.344;2023-04-03T03:48:56;100490.41;;;-1.36;75.46
77112;BME280;66064;50.226;14.344;2023-04-03T03:51:23;100504.25;;;-1.37;75.72
77112;BME280;66064;50.226;14.344;2023-04-03T03:53:49;100502.44;;;-1.38;75.72
77112;BME280;66064;50.226;14.344;2023-04-03T03:56:15;100502.78;;;-1.46;75.41
77112;BME280;66064;50.226;14.344;2023-04-03T03:58:42;100503.38;;;-1.50;75.19
77112;BME280;66064;50.226;14.344;2023-04-03T04:01:08;100505.19;;;-1.60;75.39
77112;BME280;66064;50.226;14.344;2023-04-03T04:03:35;100512.81;;;-1.63;76.86
77112;BME280;66064;50.226;14.344;2023-04-03T04:06:02;100506.22;;;-1.70;76.54
77112;BME280;66064;50.226;14.344;2023-04-03T04:08:28;100504.50;;;-1.58;76.56
77112;BME280;66064;50.226;14.344;2023-04-03T04:10:55;100503.03;;;-1.54;76.99
77112;BME280;66064;50.226;14.344;2023-04-03T04:13:22;100511.44;;;-1.70;77.13
77112;BME280;66064;50.226;14.344;2023-04-03T04:15:48;100519.41;;;-1.80;77.03
77112;BME280;66064;50.226;14.344;2023-04-03T04:18:15;100514.41;;;-1.65;77.71
77112;BME280;66064;50.226;14.344;2023-04-03T04:20:41;100517.47;;;-1.71;76.78
77112;BME280;66064;50.226;14.344;2023-04-03T04:23:08;100509.97;;;-1.66;76.89
77112;BME280;66064;50.226;14.344;2023-04-03T04:25:33;100525.16;;;-1.61;77.50
77112;BME280;66064;50.226;14.344;2023-04-03T04:28:00;100519.63;;;-1.65;77.00
77112;BME280;66064;50.226;14.344;2023-04-03T04:30:26;100516.34;;;-1.63;78.08
77112;BME280;66064;50.226;14.344;2023-04-03T04:32:53;100523.56;;;-1.59;75.71
77112;BME280;66064;50.226;14.344;2023-04-03T04:35:21;100528.78;;;-1.59;77.33
77112;BME280;66064;50.226;14.344;2023-04-03T04:37:47;100528.09;;;-1.56;76.63
77112;BME280;66064;50.226;14.344;2023-04-03T04:40:13;100529.47;;;-1.50;76.29
77112;BME280;66064;50.226;14.344;2023-04-03T04:42:40;100535.72;;;-1.48;75.50
77112;BME280;66064;50.226;14.344;2023-04-03T04:45:06;100529.00;;;-1.44;75.98
77112;BME280;66064;50.226;14.344;2023-04-03T04:47:33;100535.72;;;-1.48;75.64
77112;BME280;66064;50.226;14.344;2023-04-03T04:50:01;100534.34;;;-1.43;75.03
77112;BME280;66064;50.226;14.344;2023-04-03T04:52:27;100548.06;;;-1.45;75.10
77112;BME280;66064;50.226;14.344;2023-04-03T04:54:53;100551.50;;;-1.46;75.34
77112;BME280;66064;50.226;14.344;2023-04-03T04:57:20;100551.47;;;-1.34;75.71
77112;BME280;66064;50.226;14.344;2023-04-03T04:59:46;100550.69;;;-1.33;75.94
77112;BME280;66064;50.226;14.344;2023-04-03T05:02:13;100554.88;;;-1.35;75.95
77112;BME280;66064;50.226;14.344;2023-04-03T05:04:40;100562.84;;;-1.34;76.13
77112;BME280;66064;50.226;14.344;2023-04-03T05:07:07;100561.66;;;-1.26;75.91
77112;BME280;66064;50.226;14.344;2023-04-03T05:09:33;100554.97;;;-1.22;75.16
77112;BME280;66064;50.226;14.344;2023-04-03T05:11:59;100547.03;;;-0.62;74.20
77112;BME280;66064;50.226;14.344;2023-04-03T05:14:26;100550.09;;;0.33;70.55
77112;BME280;66064;50.226;14.344;2023-04-03T05:16:52;100545.59;;;1.11;66.79
77112;BME280;66064;50.226;14.344;2023-04-03T05:19:20;100544.84;;;1.69;65.19
77112;BME280;66064;50.226;14.344;2023-04-03T05:21:47;100553.56;;;2.42;62.43
77112;BME280;66064;50.226;14.344;2023-04-03T05:24:14;100553.25;;;2.98;60.09
77112;BME280;66064;50.226;14.344;2023-04-03T05:26:43;100543.88;;;3.66;58.09
77112;BME280;66064;50.226;14.344;2023-04-03T05:29:10;100551.09;;;3.86;57.73
77112;BME280;66064;50.226;14.344;2023-04-03T05:31:36;100553.31;;;3.95;57.48
77112;BME280;66064;50.226;14.344;2023-04-03T05:34:02;100562.84;;;3.93;56.95
77112;BME280;66064;50.226;14.344;2023-04-03T05:36:28;100555.97;;;4.47;55.06
77112;BME280;66064;50.226;14.344;2023-04-03T05:38:54;100548.25;;;5.05;53.89
77112;BME280;66064;50.226;14.344;2023-04-03T05:41:22;100552.38;;;4.80;53.02
77112;BME280;66064;50.226;14.344;2023-04-03T05:43:48;100549.34;;;5.65;52.04
77112;BME280;66064;50.226;14.344;2023-04-03T05:46:17;100556.34;;;5.45;51.55
77112;BME280;66064;50.226;14.344;2023-04-03T05:48:44;100565.28;;;6.25;49.28
77112;BME280;66064;50.226;14.344;2023-04-03T05:51:15;100554.81;;;6.48;48.76
77112;BME280;66064;50.226;14.344;2023-04-03T05:53:43;100558.50;;;6.94;47.81
77112;BME280;66064;50.226;14.344;2023-04-03T05:56:09;100557.91;;;7.01;47.36
77112;BME280;66064;50.226;14.344;2023-04-03T05:58:35;100557.94;;;7.70;45.63
77112;BME280;66064;50.226;14.344;2023-04-03T06:01:01;100557.97;;;7.94;44.15
77112;BME280;66064;50.226;14.344;2023-04-03T06:03:27;100569.28;;;7.90;43.60
77112;BME280;66064;50.226;14.344;2023-04-03T06:05:53;100573.56;;;7.18;45.79
77112;BME280;66064;50.226;14.344;2023-04-03T06:08:19;100562.38;;;8.19;43.26
77112;BME280;66064;50.226;14.344;2023-04-03T06:10:46;100562.06;;;7.17;44.37
77112;BME280;66064;50.226;14.344;2023-04-03T06:13:12;100570.28;;;7.69;43.76
77112;BME280;66064;50.226;14.344;2023-04-03T06:15:38;100569.38;;;9.20;41.50
77112;BME280;66064;50.226;14.344;2023-04-03T06:18:05;100570.19;;;8.90;41.15
77112;BME280;66064;50.226;14.344;2023-04-03T06:20:32;100571.63;;;10.23;38.71
77112;BME280;66064;50.226;14.344;2023-04-03T06:22:58;100560.28;;;9.40;39.98
77112;BME280;66064;50.226;14.344;2023-04-03T06:25:24;100572.22;;;9.26;40.95
77112;BME280;66064;50.226;14.344;2023-04-03T06:27:50;100579.25;;;8.97;40.87
77112;BME280;66064;50.226;14.344;2023-04-03T06:30:17;100584.34;;;7.45;43.26
77112;BME280;66064;50.226;14.344;2023-04-03T06:32:42;100586.63;;;7.58;43.61
77112;BME280;66064;50.226;14.344;2023-04-03T06:35:09;100584.09;;;8.83;40.89
77112;BME280;66064;50.226;14.344;2023-04-03T06:37:35;100590.41;;;8.61;40.65
77112;BME280;66064;50.226;14.344;2023-04-03T06:40:01;100589.75;;;8.67;41.37
77112;BME280;66064;50.226;14.344;2023-04-03T06:42:28;100595.91;;;9.76;38.43
77112;BME280;66064;50.226;14.344;2023-04-03T06:44:54;100587.19;;;11.47;35.13
77112;BME280;66064;50.226;14.344;2023-04-03T06:47:20;100581.94;;;11.50;34.33
77112;BME280;66064;50.226;14.344;2023-04-03T06:49:46;100586.00;;;12.12;33.03
77112;BME280;66064;50.226;14.344;2023-04-03T06:52:13;100589.41;;;11.66;34.65
77112;BME280;66064;50.226;14.344;2023-04-03T06:54:40;100593.59;;;11.55;35.20
77112;BME280;66064;50.226;14.344;2023-04-03T06:57:06;100590.88;;;11.52;34.25
77112;BME280;66064;50.226;14.344;2023-04-03T06:59:32;100574.50;;;13.14;32.05
77112;BME280;66064;50.226;14.344;2023-04-03T07:01:58;100588.91;;;12.24;32.94
77112;BME280;66064;50.226;14.344;2023-04-03T07:04:25;100585.91;;;12.54;32.55
77112;BME280;66064;50.226;14.344;2023-04-03T07:06:52;100585.91;;;13.04;31.23
77112;BME280;66064;50.226;14.344;2023-04-03T07:09:18;100572.38;;;14.16;31.15
77112;BME280;66064;50.226;14.344;2023-04-03T07:11:44;100586.47;;;12.86;32.20
77112;BME280;66064;50.226;14.344;2023-04-03T07:14:11;100582.81;;;14.68;29.72
77112;BME280;66064;50.226;14.344;2023-04-03T07:16:36;100579.75;;;14.36;29.54
77112;BME280;66064;50.226;14.344;2023-04-03T07:19:03;100595.41;;;13.38;30.86
77112;BME280;66064;50.226;14.344;2023-04-03T07:21:29;100597.97;;;11.90;33.25
77112;BME280;66064;50.226;14.344;2023-04-03T07:23:55;100592.34;;;13.15;31.56
77112;BME280;66064;50.226;14.344;2023-04-03T07:26:22;100590.78;;;14.59;29.93
77112;BME280;66064;50.226;14.344;2023-04-03T07:28:49;100595.28;;;13.30;30.99
77112;BME280;66064;50.226;14.344;2023-04-03T07:31:16;100596.19;;;12.80;31.85
77112;BME280;66064;50.226;14.344;2023-04-03T07:33:44;100594.38;;;13.90;30.03
77112;BME280;66064;50.226;14.344;2023-04-03T07:36:15;100593.81;;;14.19;31.00
77112;BME280;66064;50.226;14.344;2023-04-03T07:38:42;100591.53;;;13.78;30.02
77112;BME280;66064;50.226;14.344;2023-04-03T07:41:14;100601.19;;;15.24;29.29
77112;BME280;66064;50.226;14.344;2023-04-03T07:43:41;100596.13;;;14.62;28.53
77112;BME280;66064;50.226;14.344;2023-04-03T07:46:07;100613.72;;;12.66;32.56
77112;BME280;66064;50.226;14.344;2023-04-03T07:48:35;100607.03;;;14.79;28.18
77112;BME280;66064;50.226;14.344;2023-04-03T07:51:02;100605.66;;;15.28;27.86
77112;BME280;66064;50.226;14.344;2023-04-03T07:53:29;100604.84;;;15.35;26.85
77112;BME280;66064;50.226;14.344;2023-04-03T07:55:59;100604.56;;;15.00;26.19
77112;BME280;66064;50.226;14.344;2023-04-03T07:58:26;100599.06;;;16.09;26.18
77112;BME280;66064;50.226;14.344;2023-04-03T08:00:52;100600.09;;;16.39;25.78
77112;BME280;66064;50.226;14.344;2023-04-03T08:03:18;100607.44;;;15.23;27.81
77112;BME280;66064;50.226;14.344;2023-04-03T08:05:46;100601.13;;;16.84;24.55
77112;BME280;66064;50.226;14.344;2023-04-03T08:08:15;100601.47;;;15.62;27.09
77112;BME280;66064;50.226;14.344;2023-04-03T08:10:42;100590.34;;;17.51;24.10
77112;BME280;66064;50.226;14.344;2023-04-03T08:13:09;100593.03;;;16.71;26.28
77112;BME280;66064;50.226;14.344;2023-04-03T08:15:35;100589.44;;;17.62;23.99
77112;BME280;66064;50.226;14.344;2023-04-03T08:18:02;100589.72;;;19.01;22.02
77112;BME280;66064;50.226;14.344;2023-04-03T08:20:28;100603.88;;;19.31;23.17
77112;BME280;66064;50.226;14.344;2023-04-03T08:22:55;100597.09;;;18.76;22.69
77112;BME280;66064;50.226;14.344;2023-04-03T08:25:21;100592.75;;;19.66;21.14
77112;BME280;66064;50.226;14.344;2023-04-03T08:27:47;100588.00;;;18.93;21.18
77112;BME280;66064;50.226;14.344;2023-04-03T08:30:13;100604.72;;;17.49;23.77
77112;BME280;66064;50.226;14.344;2023-04-03T08:32:39;100609.19;;;17.40;23.70
77112;BME280;66064;50.226;14.344;2023-04-03T08:35:07;100608.28;;;17.56;23.26
77112;BME280;66064;50.226;14.344;2023-04-03T08:37:37;100615.47;;;17.11;24.70
77112;BME280;66064;50.226;14.344;2023-04-03T08:40:11;100600.22;;;17.29;22.45
77112;BME280;66064;50.226;14.344;2023-04-03T08:42:54;100601.91;;;18.09;23.15
77112;BME280;66064;50.226;14.344;2023-04-03T08:45:47;100605.59;;;17.53;23.07
77112;BME280;66064;50.226;14.344;2023-04-03T08:48:20;100606.25;;;18.36;22.63
77112;BME280;66064;50.226;14.344;2023-04-03T08:50:50;100603.63;;;19.61;22.26
77112;BME280;66064;50.226;14.344;2023-04-03T08:53:22;100600.56;;;20.67;21.59
77112;BME280;66064;50.226;14.344;2023-04-03T08:55:51;100608.28;;;19.42;20.27
77112;BME280;66064;50.226;14.344;2023-04-03T08:58:23;100611.00;;;19.36;20.89
77112;BME280;66064;50.226;14.344;2023-04-03T09:01:02;100606.63;;;19.25;21.14
77112;BME280;66064;50.226;14.344;2023-04-03T09:03:36;100622.72;;;19.34;19.97
77112;BME280;66064;50.226;14.344;2023-04-03T09:06:15;100621.63;;;19.64;20.33
77112;BME280;66064;50.226;14.344;2023-04-03T09:08:51;100604.78;;;20.87;18.68
77112;BME280;66064;50.226;14.344;2023-04-03T09:11:26;100611.16;;;21.91;17.93
77112;BME280;66064;50.226;14.344;2023-04-03T09:14:22;100603.81;;;20.91;19.42
77112;BME280;66064;50.226;14.344;2023-04-03T09:22:43;100608.53;;;19.12;20.75
77112;BME280;66064;50.226;14.344;2023-04-03T09:25:23;100608.28;;;17.76;22.65
77112;BME280;66064;50.226;14.344;2023-04-03T09:27:51;100592.66;;;20.51;20.60
77112;BME280;66064;50.226;14.344;2023-04-03T09:30:23;100620.72;;;16.55;23.37
77112;BME280;66064;50.226;14.344;2023-04-03T09:32:52;100625.44;;;15.43;24.92
77112;BME280;66064;50.226;14.344;2023-04-03T09:35:24;100629.91;;;12.28;28.86
77112;BME280;66064;50.226;14.344;2023-04-03T09:37:52;100644.16;;;10.48;31.58
77112;BME280;66064;50.226;14.344;2023-04-03T09:42:52;100621.41;;;14.13;26.76
77112;BME280;66064;50.226;14.344;2023-04-03T09:45:24;100624.72;;;13.92;27.69
77112;BME280;66064;50.226;14.344;2023-04-03T09:50:36;100630.69;;;13.73;27.52
77112;BME280;66064;50.226;14.344;2023-04-03T09:53:12;100630.34;;;14.88;26.27
77112;BME280;66064;50.226;14.344;2023-04-03T09:55:51;100614.56;;;16.88;22.68
77112;BME280;66064;50.226;14.344;2023-04-03T09:58:29;100631.69;;;13.22;27.06
77112;BME280;66064;50.226;14.344;2023-04-03T10:00:58;100632.31;;;12.16;28.21
77112;BME280;66064;50.226;14.344;2023-04-03T10:03:35;100639.88;;;9.94;32.13
77112;BME280;66064;50.226;14.344;2023-04-03T10:06:04;100649.09;;;10.05;31.31
77112;BME280;66064;50.226;14.344;2023-04-03T10:08:32;100648.53;;;9.04;32.42
77112;BME280;66064;50.226;14.344;2023-04-03T10:11:25;100637.56;;;12.56;28.76
77112;BME280;66064;50.226;14.344;2023-04-03T10:13:53;100634.88;;;14.18;26.17
77112;BME280;66064;50.226;14.344;2023-04-03T10:16:25;100633.44;;;13.22;26.48
77112;BME280;66064;50.226;14.344;2023-04-03T10:21:59;100641.69;;;10.55;31.31
77112;BME280;66064;50.226;14.344;2023-04-03T10:24:38;100645.94;;;10.81;31.42
77112;BME280;66064;50.226;14.344;2023-04-03T10:27:18;100629.78;;;10.42;31.01
77112;BME280;66064;50.226;14.344;2023-04-03T10:38:20;100636.44;;;8.36;34.14
77112;BME280;66064;50.226;14.344;2023-04-03T10:43:50;100635.66;;;8.90;34.69
77112;BME280;66064;50.226;14.344;2023-04-03T10:46:28;100638.78;;;8.53;37.21
77112;BME280;66064;50.226;14.344;2023-04-03T10:49:05;100630.69;;;10.12;32.94
77112;BME280;66064;50.226;14.344;2023-04-03T10:54:39;100614.66;;;13.75;28.12
77112;BME280;66064;50.226;14.344;2023-04-03T10:57:08;100596.50;;;14.99;24.71
77112;BME280;66064;50.226;14.344;2023-04-03T10:59:46;100602.38;;;15.58;25.05
77112;BME280;66064;50.226;14.344;2023-04-03T11:02:21;100597.28;;;14.09;24.44
77112;BME280;66064;50.226;14.344;2023-04-03T11:04:53;100608.63;;;12.31;26.36
77112;BME280;66064;50.226;14.344;2023-04-03T11:07:41;100614.22;;;11.26;30.44
77112;BME280;66064;50.226;14.344;2023-04-03T11:10:42;100613.75;;;12.22;28.48
77112;BME280;66064;50.226;14.344;2023-04-03T11:13:24;100598.38;;;11.31;28.88
77112;BME280;66064;50.226;14.344;2023-04-03T11:15:53;100619.06;;;10.72;29.73
77112;BME280;66064;50.226;14.344;2023-04-03T11:18:59;100604.28;;;9.32;31.86
77112;BME280;66064;50.226;14.344;2023-04-03T11:21:51;100602.81;;;10.61;30.95
77112;BME280;66064;50.226;14.344;2023-04-03T11:24:30;100593.28;;;12.69;29.91
77112;BME280;66064;50.226;14.344;2023-04-03T11:26:58;100591.25;;;12.54;28.50
77112;BME280;66064;50.226;14.344;2023-04-03T11:29:34;100602.34;;;11.12;30.11
77112;BME280;66064;50.226;14.344;2023-04-03T11:32:08;100597.94;;;10.78;29.40
77112;BME280;66064;50.226;14.344;2023-04-03T11:34:40;100604.41;;;9.08;32.72
77112;BME280;66064;50.226;14.344;2023-04-03T11:39:55;100606.94;;;7.81;34.75
77112;BME280;66064;50.226;14.344;2023-04-03T11:42:37;100604.03;;;7.29;35.45
77112;BME280;66064;50.226;14.344;2023-04-03T12:22:10;100566.88;;;9.82;32.05
77112;BME280;66064;50.226;14.344;2023-04-03T12:27:14;100550.88;;;12.38;26.03
77112;BME280;66064;50.226;14.344;2023-04-03T12:29:51;100539.78;;;14.52;25.13
77112;BME280;66064;50.226;14.344;2023-04-03T12:35:20;100562.44;;;10.13;34.18
77112;BME280;66064;50.226;14.344;2023-04-03T12:40:54;100577.72;;;8.03;37.70
77112;BME280;66064;50.226;14.344;2023-04-03T12:46:33;100564.91;;;7.68;37.83
77112;BME280;66064;50.226;14.344;2023-04-03T12:49:16;100573.56;;;7.86;37.43
77112;BME280;66064;50.226;14.344;2023-04-03T12:51:47;100564.28;;;7.51;37.87
77112;BME280;66064;50.226;14.344;2023-04-03T12:54:38;100549.19;;;9.25;35.29
77112;BME280;66064;50.226;14.344;2023-04-03T12:57:16;100544.56;;;10.40;33.19
77112;BME280;66064;50.226;14.344;2023-04-03T12:59:43;100535.81;;;10.44;31.67
77112;BME280;66064;50.226;14.344;2023-04-03T13:04:56;100550.16;;;7.75;34.32
77112;BME280;66064;50.226;14.344;2023-04-03T13:07:35;100549.53;;;7.35;36.34
77112;BME280;66064;50.226;14.344;2023-04-03T13:12:34;100560.13;;;8.05;38.52
77112;BME280;66064;50.226;14.344;2023-04-03T13:15:11;100551.22;;;7.80;36.07
77112;BME280;66064;50.226;14.344;2023-04-03T13:17:39;100563.47;;;7.76;35.81
77112;BME280;66064;50.226;14.344;2023-04-03T13:20:17;100555.56;;;7.54;36.24
77112;BME280;66064;50.226;14.344;2023-04-03T13:23:04;100547.81;;;7.36;36.40
77112;BME280;66064;50.226;14.344;2023-04-03T13:25:34;100544.91;;;7.52;36.92
77112;BME280;66064;50.226;14.344;2023-04-03T13:28:04;100538.81;;;6.88;36.94
77112;BME280;66064;50.226;14.344;2023-04-03T13:30:33;100541.66;;;7.37;36.66
77112;BME280;66064;50.226;14.344;2023-04-03T13:33:01;100533.53;;;6.65;36.71
77112;BME280;66064;50.226;14.344;2023-04-03T13:35:35;100541.13;;;6.79;37.59
77112;BME280;66064;50.226;14.344;2023-04-03T13:38:21;100553.50;;;6.80;38.78
77112;BME280;66064;50.226;14.344;2023-04-03T13:40:53;100559.31;;;6.29;40.28
77112;BME280;66064;50.226;14.344;2023-04-03T13:43:26;100557.84;;;5.96;39.74
77112;BME280;66064;50.226;14.344;2023-04-03T13:48:35;100556.47;;;6.06;40.54
77112;BME280;66064;50.226;14.344;2023-04-03T13:51:17;100548.50;;;6.04;40.02
77112;BME280;66064;50.226;14.344;2023-04-03T13:53:57;100554.06;;;5.91;39.62
77112;BME280;66064;50.226;14.344;2023-04-03T13:56:30;100547.94;;;6.11;39.59
77112;BME280;66064;50.226;14.344;2023-04-03T14:01:45;100535.84;;;6.58;38.24
77112;BME280;66064;50.226;14.344;2023-04-03T14:04:26;100539.31;;;6.78;38.76
77112;BME280;66064;50.226;14.344;2023-04-03T14:06:53;100548.50;;;6.65;41.00
77112;BME280;66064;50.226;14.344;2023-04-03T14:09:22;100538.75;;;6.03;39.52
77112;BME280;66064;50.226;14.344;2023-04-03T14:11:50;100547.31;;;6.17;40.60
77112;BME280;66064;50.226;14.344;2023-04-03T14:14:22;100547.06;;;5.91;39.80
77112;BME280;66064;50.226;14.344;2023-04-03T14:16:55;100546.56;;;6.00;40.26
77112;BME280;66064;50.226;14.344;2023-04-03T14:19:23;100543.13;;;6.03;39.59
77112;BME280;66064;50.226;14.344;2023-04-03T14:21:50;100540.38;;;6.00;40.45
77112;BME280;66064;50.226;14.344;2023-04-03T14:24:16;100542.91;;;6.17;39.60
77112;BME280;66064;50.226;14.344;2023-04-03T14:26:43;100542.59;;;6.10;39.65
77112;BME280;66064;50.226;14.344;2023-04-03T14:29:11;100542.03;;;6.17;39.02
77112;BME280;66064;50.226;14.344;2023-04-03T14:31:37;100549.88;;;6.36;39.92